x

San Francisco - 18nm West Of San Francisco, Ca (46026) Wave Buoy

9:50pm - Wed 26th Nov 2014 All times are PST. -8 hours from GMT.

  • Sig Wave height 3.3ft
  • Swell Direction
  • Peak Period 11s
  • Average Period 10s
  • Wind
    2mph, 4mph gusts
  • Sea Temp 58°f
  • Air Temp 60°f
  • Sea Pressure 1023.4mb
  • San Francisco - 18nm West Of San Francisco, Ca
  • San Francisco - 18nm West Of San Francisco, Ca

More Historic Weather Station data

Upgrade to MSW Pro to gain access to the past 30 days of data for over 8000 Wavebouys and Weather Stations around the globe.

Join Pro

Comparision Forecast

View Surf forecast
   
Wed 11/26 9:50pm 3.5ft 11s 10s 2 4 mph 1023.4mb 58f 60f
8:50pm 3ft 12s 9s 4
mph
1023.3mb 58f 60f
7:50pm 3ft 11s 9s 4 7 mph 1023.2mb 58f 60f
5:50pm 3ft 11s 9s 7 9 mph 1023mb 58f 60f
4:50pm 3.5ft 12s 9s 9 11 mph 1022.6mb 58f 61f
3:50pm 3.5ft 12s 8s 7 9 mph 1022.9mb 58f 62f
2:50pm 3.5ft 12s 8s 9
mph
1022.9mb 58f 62f
1:50pm 4ft 11s 7s 11 13 mph 1022.9mb 58f 62f
12:50pm 4ft 11s 7s 13 16 mph 1023.4mb 58f 61f
11:50am 4.5ft 12s 6s 16 18 mph 1024.1mb 58f 60f
10:50am 4.5ft 12s 7s 16 18 mph 1024.9mb 58f 59f
9:50am 4.5ft 13s 7s 18 22 mph 1025.4mb 58f 59f
8:50am 4.5ft 12s 6s 18 22 mph 1025.5mb 58f 58f
7:50am 4.5ft 12s 7s 18 20 mph 1025.5mb 58f 58f
6:50am 5ft 13s 7s 16 20 mph 1025.4mb 58f 58f
5:50am 5ft 12s 7s 18 22 mph 1024.8mb 58f 59f
4:50am 5ft 13s 7s 18 22 mph 1025.3mb 58f 59f
3:50am 5ft 13s 8s 16 20 mph 1025.5mb 58f 59f
2:50am 5ft 12s 8s 13 16 mph 1025.8mb 58f 59f
1:50am 5ft 13s 8s 13 18 mph 1025.7mb 58f 59f
12:50am 6ft 12s 8s 13 18 mph 1025.8mb 58f 60f
Tue 11/25 11:50pm 5ft 13s 8s 13 18 mph 1026.5mb 58f 60f
10:50pm 5.5ft 13s 8s 16 18 mph 1026.9mb 57f 60f
9:50pm 5ft 13s 8s 13 18 mph 1027.2mb 57f 60f
8:50pm 5ft 13s 9s 13 16 mph 1027.6mb 58f 61f
7:50pm 5.5ft 13s 9s 13 16 mph 1027.5mb 58f 61f
6:50pm 5ft 14s 9s 13 16 mph 1027.6mb 58f 61f
5:50pm 5ft 13s 9s 7 9 mph 1027.7mb 58f 60f
4:50pm 5.5ft 14s 9s 11 13 mph 1027.8mb 58f 61f
3:50pm 5ft 14s 9s 2 4 mph 1028.4mb 58f 61f
2:50pm 5.5ft 13s 8s 9
mph
1028.4mb 58f 61f
1:50pm 5.5ft 14s 8s 7 11 mph 1028.6mb 58f 60f
12:50pm 6ft 14s 8s 16 18 mph 1028.9mb 58f 60f
11:50am 6ft 13s 7s 16 18 mph 1029.8mb 58f 59f
10:50am 7ft 14s 8s 20 25 mph 1030.3mb 57f 59f
9:50am 7ft 13s 8s 18 22 mph 1030.9mb 57f 58f
8:50am 6.5ft 13s 8s 18 22 mph 1030.6mb 57f 58f
7:50am 8ft 14s 9s 16 18 mph 1030.5mb 57f 58f
6:50am 6.5ft 15s 9s 16 20 mph 1030.1mb 57f 57f
5:50am 6.5ft 14s 10s 2
mph
1030mb 57f 57f
4:50am 6.5ft 14s 10s 9 11 mph 1029.7mb 57f 58f
3:50am 6ft 14s 9s 7 11 mph 1029.8mb 57f 58f
2:50am 6.5ft 14s 10s 9 11 mph 1029.9mb 57f 58f
1:50am 7.5ft 13s 10s 4 9 mph 1030.2mb 57f 57f
12:50am 7ft 14s 10s 2 4 mph 1030.2mb 57f 57f
Mon 11/24 11:50pm 6ft 15s 10s 4
mph
1030.1mb 58f 57f
10:50pm 5ft 12s 9s 4 7 mph 1029.9mb 58f 58f
9:50pm 7ft 14s 10s 4 7 mph 1029.6mb 58f 58f
8:50pm 6.5ft 14s 10s 4 7 mph 1029.4mb 58f 58f
7:50pm 7ft 13s 10s 7 9 mph 1028.9mb 58f 58f
6:50pm 6.5ft 13s 10s 9 11 mph 1028.6mb 58f 58f
5:50pm 6.5ft 15s 9s 11 13 mph 1028.5mb 59f 58f
4:50pm 6.5ft 14s 9s 9 13 mph 1028.3mb 59f 59f
3:50pm 7ft 14s 10s 9 11 mph 1028.1mb 59f 59f
2:50pm 7ft 14s 10s 9 11 mph 1028.1mb 59f 58f
1:50pm 7ft 14s 10s 7 9 mph 1028.3mb 59f 58f
12:50pm 8.5ft 14s 10s 4 7 mph 1028.6mb 59f 58f
11:50am 7.5ft 14s 10s 2 4 mph 1029.4mb 58f 57f
10:50am 7ft 13s 9s 2 4 mph 1030mb 58f 57f
9:50am 8ft 13s 9s  -  4 mph 1030mb 58f 58f
8:50am 7.5ft 13s 9s 4 7 mph 1029.6mb 57f 57f
7:50am 7.5ft 13s 9s 4 7 mph 1029.2mb 57f 56f
6:50am 8ft 13s 9s 4 7 mph 1028.6mb 57f 56f
5:50am 7.5ft 13s 9s 7 9 mph 1027.9mb 58f 56f
4:50am 7ft 13s 8s 7 9 mph 1027.5mb 58f 56f
3:50am 7ft 14s 9s 7 9 mph 1027.3mb 58f 57f
2:50am 7.5ft 14s 9s 7 9 mph 1027.2mb 58f 57f
1:50am 8ft 13s 9s 4 7 mph 1027.2mb 58f 57f
12:50am 8ft 14s 9s 9 11 mph 1027mb 58f 58f
Sun 11/23 11:50pm 8ft 13s 8s 7 9 mph 1027.2mb 58f 57f
10:50pm 8.5ft 13s 8s 4 7 mph 1027.2mb 58f 57f
9:50pm 8ft 13s 8s 13 16 mph 1026.9mb 58f 58f
8:50pm 9ft 14s 9s 13 18 mph 1026.5mb 58f 58f
7:50pm 8.5ft 14s 8s 16 18 mph 1026.2mb 58f 58f
5:50pm 7ft 14s 8s 16 18 mph 1026.2mb 58f 58f
4:50pm 8ft 14s 9s 13 18 mph 1025.8mb 59f 58f
3:50pm 7ft 14s 8s 13 16 mph 1025.8mb 59f 58f
2:50pm 7.5ft 12s 8s 11 13 mph 1025.7mb 59f 58f
1:50pm 8ft 14s 9s 9 11 mph 1025.9mb 59f 58f
12:50pm 8ft 14s 9s 7 11 mph 1026.3mb 59f 58f
11:50am 7.5ft 15s 8s 7 9 mph 1026.6mb 58f 58f
10:50am 7.5ft 13s 9s 9 11 mph 1027.4mb 58f 58f
9:50am 8ft 15s 9s 11 13 mph 1027.4mb 58f 57f
8:50am 7.5ft 14s 9s 13 16 mph 1026.8mb 58f 57f
7:50am 7.5ft 14s  -  11 13 mph 1026.4mb 58f 57f